Tunapolis, Brazil
Current Conditions -  °F | °C
As of 12:00 AM on Sunday 26 Oct 2014 (Local Time) from SBCH Reporting Station
Few Clouds Few Clouds  
Wind Chill: 72°   Ceiling: Unl
Heat Index: 72°   Visibility: 6mi
Dew Point: 63°   Wind: 13mph
Humidity: 73%   Direction: 10°N
Pressure: 29.94"   Gusts: NA
Location:  26.97°S, 53.64°W
Report Text: SBCH 260200Z 01011KT 9999 FEW025 22/17 Q1014
Loading
Personal Weather Stations






























Interactive Weather Map
Tropical Storm Tracking
New forecast layout! Learn more

10-Day Weather Forecast

Advertisements
Track Severe Weather on mobile